createdAt,value
2022-11-16T00:00:34.499Z,99.99
2022-11-16T00:01:34.492Z,99.99
2022-11-16T00:02:34.527Z,99.99
2022-11-16T00:03:34.503Z,99.99
2022-11-16T00:04:34.444Z,99.99
2022-11-16T00:05:34.449Z,99.99
2022-11-16T00:06:34.428Z,99.99
2022-11-16T00:07:34.472Z,99.99
2022-11-16T00:08:34.625Z,99.99
2022-11-16T00:09:34.377Z,99.99
2022-11-16T00:10:34.350Z,99.99
2022-11-16T00:11:34.373Z,99.99
2022-11-16T00:12:34.351Z,99.99
2022-11-16T00:13:34.303Z,99.99
2022-11-16T00:14:34.298Z,99.99
2022-11-16T00:15:34.283Z,99.99
2022-11-16T00:16:34.283Z,99.99
2022-11-16T00:17:34.248Z,99.99
2022-11-16T00:18:34.612Z,99.99
2022-11-16T00:19:34.228Z,99.99
2022-11-16T00:20:34.248Z,99.99
2022-11-16T00:21:34.235Z,99.99
2022-11-16T00:22:34.185Z,99.99
2022-11-16T00:23:34.179Z,99.99
2022-11-16T00:24:34.145Z,99.99
2022-11-16T00:25:34.147Z,99.99
2022-11-16T00:26:34.146Z,99.99
2022-11-16T00:27:34.122Z,99.99
2022-11-16T00:28:34.485Z,99.99
2022-11-16T00:29:34.088Z,99.99
2022-11-16T00:30:34.091Z,99.99
2022-11-16T00:31:34.055Z,99.99
2022-11-16T00:32:34.043Z,99.99
2022-11-16T00:33:34.043Z,99.99
2022-11-16T00:34:34.014Z,99.99
2022-11-16T00:35:33.990Z,99.99
2022-11-16T00:36:33.963Z,99.99
2022-11-16T00:37:33.987Z,99.99
2022-11-16T00:38:34.208Z,99.99
2022-11-16T00:39:33.939Z,99.99
2022-11-16T00:40:33.931Z,99.99
2022-11-16T00:41:33.931Z,99.99
2022-11-16T00:42:33.891Z,99.99
2022-11-16T00:43:33.900Z,99.99
2022-11-16T00:44:34.220Z,99.99
2022-11-16T00:45:33.855Z,99.99
2022-11-16T00:46:33.821Z,99.99
2022-11-16T00:47:33.847Z,99.99
2022-11-16T00:48:34.145Z,99.99
2022-11-16T00:49:33.802Z,99.99
2022-11-16T00:50:33.814Z,99.99
2022-11-16T00:51:33.796Z,99.99
2022-11-16T00:52:33.746Z,99.99
2022-11-16T00:53:33.803Z,99.99
2022-11-16T00:54:33.703Z,99.99
2022-11-16T00:55:33.715Z,99.99
2022-11-16T00:56:43.050Z,99.99
2022-11-16T00:57:33.730Z,99.99
2022-11-16T00:58:33.841Z,99.99
2022-11-16T00:59:33.684Z,99.99
2022-11-16T01:00:33.711Z,99.99
2022-11-16T01:01:33.746Z,99.99
2022-11-16T01:02:33.684Z,99.99
2022-11-16T01:03:33.635Z,99.99
2022-11-16T01:04:33.625Z,99.99
2022-11-16T01:05:33.635Z,99.99
2022-11-16T01:06:33.950Z,99.99
2022-11-16T01:07:33.575Z,99.99
2022-11-16T01:08:33.812Z,99.99
2022-11-16T01:09:33.513Z,99.99
2022-11-16T01:10:33.528Z,99.99
2022-11-16T01:11:33.591Z,99.99
2022-11-16T01:12:33.522Z,99.99
2022-11-16T01:13:33.459Z,99.99
2022-11-16T01:14:33.459Z,99.99
2022-11-16T01:15:33.642Z,99.99
2022-11-16T01:16:33.427Z,99.99
2022-11-16T01:19:00.529Z,99.99
2022-11-16T01:19:34.995Z,99.99
2022-11-16T01:20:05.235Z,99.99
2022-11-16T01:21:05.187Z,99.99
2022-11-16T01:22:05.194Z,99.99
2022-11-16T01:23:05.170Z,99.99
2022-11-16T01:24:05.209Z,99.99
2022-11-16T01:25:05.132Z,99.99
2022-11-16T01:26:05.136Z,99.99
2022-11-16T01:27:05.138Z,99.99
2022-11-16T01:28:05.137Z,99.99
2022-11-16T01:29:05.082Z,99.99
2022-11-16T01:30:05.090Z,99.99
2022-11-16T01:31:05.221Z,99.99
2022-11-16T01:32:05.062Z,99.99
2022-11-16T01:33:05.028Z,99.99
2022-11-16T01:34:05.041Z,99.99
2022-11-16T01:35:05.011Z,99.99
2022-11-16T01:36:04.980Z,99.99
2022-11-16T01:37:04.959Z,99.99
2022-11-16T01:38:04.953Z,99.99
2022-11-16T01:39:04.964Z,99.99
2022-11-16T01:40:04.933Z,99.99
2022-11-16T01:41:04.922Z,99.99
2022-11-16T01:42:04.888Z,99.99
2022-11-16T01:43:04.871Z,99.99
2022-11-16T01:44:04.890Z,99.99
2022-11-16T01:45:04.887Z,99.99
2022-11-16T01:46:04.843Z,99.99
2022-11-16T01:47:04.828Z,99.99
2022-11-16T01:48:04.869Z,99.99
2022-11-16T01:49:04.832Z,99.99
2022-11-16T01:50:04.778Z,99.99
2022-11-16T01:51:04.761Z,99.99
2022-11-16T01:52:04.778Z,99.99
2022-11-16T01:53:04.813Z,99.99
2022-11-16T01:54:04.751Z,99.99
2022-11-16T01:55:04.730Z,99.99
2022-11-16T01:56:04.693Z,99.99
2022-11-16T01:57:04.715Z,99.99
2022-11-16T01:58:04.681Z,99.99
2022-11-16T01:59:04.730Z,99.99
2022-11-16T02:00:04.658Z,99.99
2022-11-16T02:01:04.719Z,99.99
2022-11-16T02:02:04.627Z,99.99
2022-11-16T02:03:04.597Z,99.99
2022-11-16T02:04:04.587Z,99.99
2022-11-16T02:05:04.628Z,99.99
2022-11-16T02:06:04.559Z,99.99
2022-11-16T02:07:04.552Z,99.99
2022-11-16T02:08:04.544Z,99.99
2022-11-16T02:09:04.515Z,99.99
2022-11-16T02:10:04.514Z,99.99
2022-11-16T02:11:04.498Z,99.99
2022-11-16T02:12:04.470Z,99.99
2022-11-16T02:13:04.440Z,99.99
2022-11-16T02:14:04.441Z,99.99
2022-11-16T02:15:04.416Z,99.99
2022-11-16T02:16:04.406Z,99.99
2022-11-16T02:17:04.395Z,99.99
2022-11-16T02:18:04.372Z,99.99
2022-11-16T02:19:04.365Z,99.99
2022-11-16T02:20:04.449Z,99.99
2022-11-16T02:21:04.343Z,99.99
2022-11-16T02:22:04.339Z,99.99
2022-11-16T02:23:04.303Z,99.99
2022-11-16T02:24:04.314Z,99.99
2022-11-16T02:25:04.265Z,99.99
2022-11-16T02:26:04.293Z,99.99
2022-11-16T02:27:04.261Z,99.99
2022-11-16T02:28:04.285Z,99.99
2022-11-16T02:29:04.222Z,99.99
2022-11-16T02:30:04.203Z,99.99
2022-11-16T02:31:04.196Z,99.99
2022-11-16T02:32:04.177Z,99.99
2022-11-16T02:33:04.175Z,99.99
2022-11-16T02:34:04.188Z,99.99
2022-11-16T02:35:04.162Z,99.99
2022-11-16T02:36:04.118Z,99.99
2022-11-16T02:37:04.138Z,99.99
2022-11-16T02:38:04.107Z,99.99
2022-11-16T02:39:04.081Z,99.99
2022-11-16T02:40:04.077Z,99.99
2022-11-16T02:41:04.060Z,99.99
2022-11-16T02:42:04.030Z,99.99
2022-11-16T02:43:04.045Z,99.99
2022-11-16T02:44:04.007Z,99.99
2022-11-16T02:45:03.997Z,99.99
2022-11-16T02:46:04.016Z,99.99
2022-11-16T02:47:04.034Z,99.99
2022-11-16T02:48:03.991Z,99.99
2022-11-16T02:49:03.958Z,99.99
2022-11-16T02:50:03.943Z,99.99
2022-11-16T02:51:03.918Z,99.99
2022-11-16T02:52:03.890Z,99.99
2022-11-16T02:53:03.899Z,99.99
2022-11-16T02:54:03.864Z,99.99
2022-11-16T02:55:03.866Z,99.99
2022-11-16T02:56:03.836Z,99.99
2022-11-16T02:57:03.833Z,99.99
2022-11-16T02:58:03.831Z,99.99
2022-11-16T02:59:03.790Z,99.99
2022-11-16T03:00:03.852Z,99.99
2022-11-16T03:01:03.847Z,99.99
2022-11-16T03:02:03.741Z,99.99
2022-11-16T03:03:03.758Z,99.99
2022-11-16T03:04:03.724Z,99.99
2022-11-16T03:05:03.739Z,99.99
2022-11-16T03:06:03.692Z,99.99
2022-11-16T03:07:03.745Z,99.99
2022-11-16T03:08:03.657Z,99.99
2022-11-16T03:09:03.666Z,99.99
2022-11-16T03:10:03.660Z,99.99
2022-11-16T03:11:03.613Z,99.99
2022-11-16T03:12:03.634Z,99.99
2022-11-16T03:13:03.709Z,99.99
2022-11-16T03:14:03.606Z,99.99
2022-11-16T03:15:03.632Z,99.99
2022-11-16T03:16:03.614Z,99.99
2022-11-16T03:17:03.547Z,99.99
2022-11-16T03:18:03.524Z,99.99
2022-11-16T03:19:03.515Z,99.99
2022-11-16T03:20:03.522Z,99.99
2022-11-16T03:21:03.501Z,99.99
2022-11-16T03:22:03.483Z,99.99
2022-11-16T03:23:03.469Z,99.99
2022-11-16T03:24:03.431Z,99.99
2022-11-16T03:25:03.440Z,99.99
2022-11-16T03:26:03.404Z,99.99
2022-11-16T03:27:03.426Z,99.99
2022-11-16T03:28:03.395Z,99.99
2022-11-16T03:29:03.381Z,99.99
2022-11-16T03:30:03.356Z,99.99
2022-11-16T03:31:03.339Z,99.99
2022-11-16T03:32:03.321Z,99.99
2022-11-16T03:33:03.319Z,99.99
2022-11-16T03:34:03.295Z,99.99
2022-11-16T03:35:03.266Z,99.99
2022-11-16T03:36:03.273Z,99.99
2022-11-16T03:37:03.249Z,99.99
2022-11-16T03:38:03.251Z,99.99
2022-11-16T03:39:03.245Z,99.99
2022-11-16T03:40:03.249Z,99.99
2022-11-16T03:41:03.190Z,99.99
2022-11-16T03:42:03.191Z,99.99
2022-11-16T03:43:03.198Z,99.99
2022-11-16T03:44:03.147Z,99.99
2022-11-16T03:45:03.147Z,99.99
2022-11-16T03:46:03.123Z,99.99
2022-11-16T03:47:03.091Z,99.99
2022-11-16T03:48:03.113Z,99.99
2022-11-16T03:49:03.086Z,99.99
2022-11-16T03:50:03.096Z,99.99
2022-11-16T03:51:03.038Z,99.99
2022-11-16T03:52:03.029Z,99.99
2022-11-16T03:53:03.020Z,99.99
2022-11-16T03:54:03.030Z,99.99
2022-11-16T03:55:03.011Z,99.99
2022-11-16T03:56:03.036Z,99.99
2022-11-16T03:57:02.976Z,99.99
2022-11-16T03:58:02.960Z,99.99
2022-11-16T03:59:02.923Z,99.99
2022-11-16T04:00:02.966Z,99.99
2022-11-16T04:01:03.034Z,99.99
2022-11-16T04:02:02.920Z,99.99
2022-11-16T04:03:02.870Z,99.99
2022-11-16T04:04:02.899Z,99.99
2022-11-16T04:05:02.858Z,99.99
2022-11-16T04:06:02.861Z,99.99
2022-11-16T04:07:02.913Z,99.99
2022-11-16T04:08:02.854Z,99.99
2022-11-16T04:09:02.797Z,99.99
2022-11-16T04:10:02.804Z,99.99
2022-11-16T04:11:02.798Z,99.99
2022-11-16T04:12:02.746Z,99.99
2022-11-16T04:13:02.754Z,99.99
2022-11-16T04:14:06.636Z,99.99
2022-11-16T04:15:03.719Z,99.99
2022-11-16T04:16:02.774Z,99.99
2022-11-16T04:17:02.705Z,99.99
2022-11-16T04:18:02.697Z,99.99
2022-11-16T04:19:02.688Z,99.99
2022-11-16T04:20:02.639Z,99.99
2022-11-16T04:21:02.620Z,99.99
2022-11-16T04:22:02.609Z,99.99
2022-11-16T04:23:02.613Z,99.99
2022-11-16T04:24:02.623Z,99.99
2022-11-16T04:25:02.608Z,99.99
2022-11-16T04:26:02.551Z,99.99
2022-11-16T04:27:02.566Z,99.99
2022-11-16T04:28:02.551Z,99.99
2022-11-16T04:29:02.495Z,99.99
2022-11-16T04:30:02.567Z,99.99
2022-11-16T04:31:02.514Z,99.99
2022-11-16T04:32:02.468Z,99.99
2022-11-16T04:33:02.443Z,99.99
2022-11-16T04:34:02.442Z,99.99
2022-11-16T04:35:02.449Z,99.99
2022-11-16T04:36:02.414Z,99.99
2022-11-16T04:37:02.397Z,99.99
2022-11-16T04:38:02.400Z,99.99
2022-11-16T04:39:02.377Z,99.99
2022-11-16T04:40:02.356Z,99.99
2022-11-16T04:41:02.349Z,99.99
2022-11-16T04:42:02.343Z,99.99
2022-11-16T04:43:02.317Z,99.99
2022-11-16T04:44:02.324Z,99.99
2022-11-16T04:45:02.299Z,99.99
2022-11-16T04:46:02.280Z,99.99
2022-11-16T04:47:02.271Z,99.99
2022-11-16T04:48:02.247Z,99.99
2022-11-16T04:49:02.248Z,99.99
2022-11-16T04:50:02.216Z,99.99
2022-11-16T04:51:02.181Z,99.99
2022-11-16T04:52:02.199Z,99.99
2022-11-16T04:53:02.163Z,99.99
2022-11-16T04:54:02.143Z,99.99
2022-11-16T04:55:02.145Z,99.99
2022-11-16T04:56:02.120Z,99.99
2022-11-16T04:57:02.115Z,99.99
2022-11-16T04:58:02.114Z,99.99
2022-11-16T04:59:02.070Z,99.99
2022-11-16T05:00:02.061Z,99.99
2022-11-16T05:01:02.097Z,99.99
2022-11-16T05:02:02.037Z,99.99
2022-11-16T05:03:02.121Z,99.99
2022-11-16T05:04:02.044Z,99.99
2022-11-16T05:05:02.023Z,99.99
2022-11-16T05:06:01.973Z,99.99
2022-11-16T05:07:02.034Z,99.99
2022-11-16T05:08:01.963Z,99.99
2022-11-16T05:09:01.960Z,99.99
2022-11-16T05:10:01.933Z,99.99
2022-11-16T05:11:01.903Z,99.99
2022-11-16T05:12:01.893Z,99.99
2022-11-16T05:13:01.897Z,99.99
2022-11-16T05:14:01.861Z,99.99
2022-11-16T05:15:01.897Z,99.99
2022-11-16T05:16:01.847Z,99.99
2022-11-16T05:17:01.838Z,99.99
2022-11-16T05:18:01.834Z,99.99
2022-11-16T05:19:01.811Z,99.99
2022-11-16T05:20:01.812Z,99.99
2022-11-16T05:21:01.794Z,99.99
2022-11-16T05:22:01.757Z,99.99
2022-11-16T05:23:01.760Z,99.99
2022-11-16T05:24:01.741Z,99.99
2022-11-16T05:25:01.701Z,99.99
2022-11-16T05:26:01.729Z,99.99
2022-11-16T05:27:01.675Z,99.99
2022-11-16T05:28:01.680Z,99.99
2022-11-16T05:29:01.694Z,99.99
2022-11-16T05:30:01.642Z,99.99
2022-11-16T05:31:01.629Z,99.99
2022-11-16T05:32:01.622Z,99.99
2022-11-16T05:33:01.612Z,99.99
2022-11-16T05:34:01.611Z,99.99
2022-11-16T05:35:01.598Z,99.99
2022-11-16T05:36:01.553Z,99.99
2022-11-16T05:37:01.562Z,99.99
2022-11-16T05:38:01.528Z,99.99
2022-11-16T05:39:01.534Z,99.99
2022-11-16T05:40:01.524Z,99.99
2022-11-16T05:41:01.523Z,99.99
2022-11-16T05:42:01.491Z,99.99
2022-11-16T05:43:01.471Z,99.99
2022-11-16T05:44:01.466Z,99.99
2022-11-16T05:45:01.445Z,99.99
2022-11-16T05:46:01.428Z,99.99
2022-11-16T05:47:01.439Z,99.99
2022-11-16T05:48:01.403Z,99.99
2022-11-16T05:49:01.393Z,99.99
2022-11-16T05:50:01.378Z,99.99
2022-11-16T05:51:01.364Z,99.99
2022-11-16T05:52:01.362Z,99.99
2022-11-16T05:53:01.324Z,99.99
2022-11-16T05:54:01.324Z,99.99
2022-11-16T05:55:01.335Z,99.99
2022-11-16T05:56:01.405Z,99.99
2022-11-16T05:57:01.296Z,99.99
2022-11-16T05:58:01.258Z,99.99
2022-11-16T05:59:01.245Z,99.99
2022-11-16T06:00:01.226Z,99.99
2022-11-16T06:01:01.217Z,99.99
2022-11-16T06:02:01.217Z,99.99
2022-11-16T06:03:01.276Z,99.99
2022-11-16T06:04:01.190Z,99.99
2022-11-16T06:05:01.158Z,99.99
2022-11-16T06:06:01.190Z,99.99
2022-11-16T06:07:01.208Z,99.99
2022-11-16T06:08:01.118Z,99.99
2022-11-16T06:09:01.103Z,99.99
2022-11-16T06:10:01.089Z,99.99
2022-11-16T06:11:01.081Z,99.99
2022-11-16T06:12:01.085Z,99.99
2022-11-16T06:13:01.092Z,99.99
2022-11-16T06:14:01.060Z,99.99
2022-11-16T06:15:01.060Z,99.99
2022-11-16T06:16:01.004Z,99.99
2022-11-16T06:17:00.996Z,99.99
2022-11-16T06:18:00.971Z,99.99
2022-11-16T06:19:01.013Z,99.99
2022-11-16T06:20:00.954Z,99.99
2022-11-16T06:21:00.932Z,99.99
2022-11-16T06:22:00.937Z,99.99
2022-11-16T06:23:00.915Z,99.99
2022-11-16T06:24:00.894Z,99.99
2022-11-16T06:25:00.898Z,99.99
2022-11-16T06:26:00.864Z,99.99
2022-11-16T06:27:00.866Z,99.99
2022-11-16T06:28:05.262Z,99.99
2022-11-16T06:29:01.837Z,99.99
2022-11-16T06:30:00.842Z,99.99
2022-11-16T06:31:00.805Z,99.99
2022-11-16T06:32:00.805Z,99.99
2022-11-16T06:33:00.776Z,99.99
2022-11-16T06:34:00.786Z,99.99
2022-11-16T06:35:00.767Z,99.99
2022-11-16T06:36:00.723Z,99.99
2022-11-16T06:37:00.721Z,99.99
2022-11-16T06:38:00.809Z,99.99
2022-11-16T06:39:00.709Z,99.99
2022-11-16T06:40:00.703Z,99.99
2022-11-16T06:41:00.692Z,99.99
2022-11-16T06:42:00.670Z,99.99
2022-11-16T06:43:00.636Z,99.99
2022-11-16T06:44:00.631Z,99.99
2022-11-16T06:45:00.608Z,99.99
2022-11-16T06:46:00.616Z,99.99
2022-11-16T06:47:00.612Z,99.99
2022-11-16T06:48:00.576Z,99.99
2022-11-16T06:49:00.561Z,99.99
2022-11-16T06:50:00.548Z,99.99
2022-11-16T06:51:00.521Z,99.99
2022-11-16T06:52:00.514Z,99.99
2022-11-16T06:53:00.500Z,99.99
2022-11-16T06:54:00.532Z,99.99
2022-11-16T06:55:00.487Z,99.99
2022-11-16T06:56:00.468Z,99.99
2022-11-16T06:57:00.500Z,99.99
2022-11-16T06:58:08.234Z,99.99
2022-11-16T06:59:00.513Z,99.99
2022-11-16T07:00:00.466Z,99.99
2022-11-16T07:01:00.620Z,99.99
2022-11-16T07:02:00.511Z,99.99
2022-11-16T07:03:00.427Z,99.99
2022-11-16T07:04:00.432Z,99.99
2022-11-16T07:05:03.526Z,99.99
2022-11-16T07:06:00.386Z,99.99
2022-11-16T07:07:00.400Z,99.99
2022-11-16T07:08:00.308Z,99.99
2022-11-16T07:09:00.343Z,99.99
2022-11-16T07:10:00.263Z,99.99
2022-11-16T07:11:04.036Z,99.99
2022-11-16T07:12:00.307Z,99.99
2022-11-16T07:13:00.339Z,99.99
2022-11-16T07:14:00.244Z,99.99
2022-11-16T07:15:00.230Z,99.99
2022-11-16T07:16:00.228Z,99.99
2022-11-16T07:17:03.951Z,99.99
2022-11-16T07:18:01.226Z,99.99
2022-11-16T07:19:00.197Z,99.99
2022-11-16T07:20:00.192Z,99.99
2022-11-16T07:21:00.171Z,99.99
2022-11-16T07:22:00.116Z,99.99
2022-11-16T07:23:00.117Z,99.99
2022-11-16T07:24:00.130Z,99.99
2022-11-16T07:25:00.260Z,99.99
2022-11-16T07:26:00.117Z,99.99
2022-11-16T07:27:00.816Z,99.99
2022-11-16T07:28:00.100Z,99.99
2022-11-16T07:29:00.149Z,99.99
2022-11-16T07:30:00.059Z,99.99
2022-11-16T07:31:00.068Z,99.99
2022-11-16T07:32:00.096Z,99.99
2022-11-16T07:33:00.113Z,99.99
2022-11-16T07:34:00.059Z,99.99
2022-11-16T07:35:00.010Z,99.99
2022-11-16T07:36:00.046Z,99.99
2022-11-16T07:36:59.969Z,99.99
2022-11-16T07:38:00.078Z,99.99
2022-11-16T07:39:00.033Z,99.99
2022-11-16T07:39:59.895Z,99.99
2022-11-16T07:41:00.065Z,99.99
2022-11-16T07:41:59.888Z,99.99
2022-11-16T07:42:59.834Z,99.99
2022-11-16T07:43:59.849Z,99.99
2022-11-16T07:44:59.873Z,99.99
2022-11-16T07:46:20.053Z,99.99
2022-11-16T07:47:00.968Z,99.99
2022-11-16T07:47:59.847Z,99.99
2022-11-16T07:48:59.800Z,99.99
2022-11-16T07:50:00.042Z,99.99
2022-11-16T07:50:59.923Z,99.99
2022-11-16T07:51:59.790Z,99.99
2022-11-16T07:52:59.901Z,99.99
2022-11-16T07:54:00.159Z,99.99
2022-11-16T07:54:59.731Z,99.99
2022-11-16T07:55:59.759Z,99.99
2022-11-16T07:56:59.779Z,99.99
2022-11-16T07:57:59.968Z,99.99
2022-11-16T07:58:59.737Z,99.99
2022-11-16T07:59:59.707Z,99.99
2022-11-16T08:00:59.671Z,99.99
2022-11-16T08:01:59.758Z,99.99
2022-11-16T08:02:59.749Z,99.99
2022-11-16T08:03:59.624Z,99.99
2022-11-16T08:04:59.703Z,99.99
2022-11-16T08:05:59.559Z,99.99
2022-11-16T08:06:59.610Z,99.99
2022-11-16T08:07:59.830Z,99.99
2022-11-16T08:08:59.607Z,99.99
2022-11-16T08:09:59.601Z,99.99
2022-11-16T08:10:59.492Z,99.99
2022-11-16T08:11:59.640Z,99.99
2022-11-16T08:12:59.620Z,99.99
2022-11-16T08:13:59.413Z,99.99
2022-11-16T08:14:59.513Z,99.99
2022-11-16T08:15:59.580Z,99.99
2022-11-16T08:16:59.493Z,99.99
2022-11-16T08:17:59.593Z,99.99
2022-11-16T08:18:59.422Z,99.99
2022-11-16T08:19:59.361Z,99.99
2022-11-16T08:20:59.328Z,99.99
2022-11-16T08:21:59.489Z,99.99
2022-11-16T08:22:59.301Z,99.99
2022-11-16T08:23:59.373Z,99.99
2022-11-16T08:24:59.345Z,99.99
2022-11-16T08:25:59.236Z,99.99
2022-11-16T08:26:59.241Z,99.99
2022-11-16T08:27:59.241Z,99.99
2022-11-16T08:28:59.214Z,99.99
2022-11-16T08:29:59.273Z,99.99
2022-11-16T08:30:59.155Z,99.99
2022-11-16T08:31:59.386Z,99.99
2022-11-16T08:32:59.131Z,99.99
2022-11-16T08:33:59.178Z,99.99
2022-11-16T08:34:59.143Z,99.99
2022-11-16T08:35:59.133Z,99.99
2022-11-16T08:36:59.162Z,99.99
2022-11-16T08:37:59.078Z,99.99
2022-11-16T08:38:59.083Z,99.99
2022-11-16T08:39:59.047Z,99.99
2022-11-16T08:40:59.102Z,99.99
2022-11-16T08:41:59.049Z,99.99
2022-11-16T08:42:59.043Z,99.99
2022-11-16T08:43:59.071Z,99.99
2022-11-16T08:44:59.000Z,99.99
2022-11-16T08:45:59.174Z,99.99
2022-11-16T08:46:58.986Z,99.99
2022-11-16T08:48:03.917Z,99.99
2022-11-16T08:48:59.936Z,99.99
2022-11-16T08:49:58.943Z,99.99
2022-11-16T08:51:21.620Z,99.99
2022-11-16T08:51:59.888Z,99.99
2022-11-16T08:52:58.868Z,99.99
2022-11-16T08:53:58.889Z,99.99
2022-11-16T08:54:58.854Z,99.99
2022-11-16T08:55:58.857Z,99.99
2022-11-16T08:56:58.794Z,99.99
2022-11-16T08:57:58.803Z,99.99
2022-11-16T08:58:59.426Z,99.99
2022-11-16T08:59:58.798Z,99.99
2022-11-16T09:00:58.747Z,99.52
2022-11-16T09:01:58.796Z,98.81
2022-11-16T09:02:58.760Z,99.22
2022-11-16T09:03:58.718Z,99.73
2022-11-16T09:04:58.737Z,98.91
2022-11-16T09:05:58.720Z,99.68
2022-11-16T09:06:58.744Z,99.93
2022-11-16T09:07:58.711Z,99.22
2022-11-16T09:08:58.698Z,99.84
2022-11-16T09:09:58.647Z,97.89
2022-11-16T09:10:58.690Z,98.81
2022-11-16T09:11:58.594Z,98.71
2022-11-16T09:12:58.627Z,98.50
2022-11-16T09:13:58.548Z,98.61
2022-11-16T09:14:58.578Z,98.91
2022-11-16T09:15:58.562Z,97.69
2022-11-16T09:16:58.546Z,98.50
2022-11-16T09:17:58.505Z,98.61
2022-11-16T09:18:58.539Z,97.17
2022-11-16T09:19:58.498Z,97.79
2022-11-16T09:20:58.474Z,98.20
2022-11-16T09:21:58.502Z,98.50
2022-11-16T09:22:58.461Z,98.65
2022-11-16T09:23:58.431Z,99.16
2022-11-16T09:24:58.423Z,98.35
2022-11-16T09:25:58.443Z,98.14
2022-11-16T09:26:58.514Z,98.55
2022-11-16T09:27:58.453Z,97.53
2022-11-16T09:28:58.470Z,98.10
2022-11-16T09:29:58.365Z,98.20
2022-11-16T09:30:58.372Z,98.10
2022-11-16T09:31:58.351Z,97.17
2022-11-16T09:32:58.313Z,97.74
2022-11-16T09:33:58.388Z,96.92
2022-11-16T09:34:58.278Z,94.78
2022-11-16T09:35:58.306Z,95.29
2022-11-16T09:36:58.288Z,97.08
2022-11-16T09:37:58.212Z,96.68
2022-11-16T09:39:59.282Z,97.14
2022-11-16T09:40:58.189Z,94.90
2022-11-16T09:41:58.201Z,93.88
2022-11-16T09:42:58.224Z,94.45
2022-11-16T09:43:58.177Z,95.32
2022-11-16T09:44:58.163Z,95.52
2022-11-16T09:45:58.304Z,90.12
2022-11-16T09:46:58.114Z,89.81
2022-11-16T09:47:58.099Z,89.40
2022-11-16T09:48:58.101Z,90.53
2022-11-16T09:50:02.876Z,89.51
2022-11-16T09:50:59.086Z,91.03
2022-11-16T09:51:58.082Z,92.67
2022-11-16T09:52:58.046Z,91.24
2022-11-16T09:53:58.069Z,92.93
2022-11-16T09:54:57.980Z,92.83
2022-11-16T09:55:58.020Z,90.73
2022-11-16T09:56:57.954Z,92.57
2022-11-16T09:57:57.968Z,91.49
2022-11-16T09:58:57.958Z,91.12
2022-11-16T09:59:57.925Z,92.80
2022-11-16T10:00:58.030Z,91.41
2022-11-16T10:01:57.929Z,91.11
2022-11-16T10:02:57.885Z,91.20
2022-11-16T10:03:57.878Z,91.00
2022-11-16T10:04:58.604Z,92.23
2022-11-16T10:05:58.082Z,93.91
2022-11-16T10:06:57.860Z,93.80
2022-11-16T10:07:57.803Z,92.99
2022-11-16T10:08:57.813Z,91.66
2022-11-16T10:09:57.793Z,93.09
2022-11-16T10:10:57.791Z,92.94
2022-11-16T10:11:57.759Z,93.25
2022-11-16T10:12:57.746Z,92.54
2022-11-16T10:14:03.694Z,91.20
2022-11-16T10:16:10.045Z,90.55
2022-11-16T10:17:10.188Z,91.37
2022-11-16T10:18:09.672Z,91.98
2022-11-16T10:19:09.614Z,90.45
2022-11-16T10:20:09.615Z,91.16
2022-11-16T10:21:09.528Z,91.06
2022-11-16T10:22:09.649Z,87.90
2022-11-16T10:23:09.631Z,90.35
2022-11-16T10:24:10.887Z,90.45
2022-11-16T10:25:09.776Z,90.81
2022-11-16T10:26:09.608Z,88.78
2022-11-16T10:27:09.519Z,88.67
2022-11-16T10:28:09.531Z,87.45
2022-11-16T10:29:09.521Z,88.78
2022-11-16T10:30:09.650Z,89.14
2022-11-16T10:31:09.529Z,87.71
2022-11-16T10:32:09.580Z,87.57
2022-11-16T10:33:11.317Z,87.84
2022-11-16T10:34:09.457Z,86.88
2022-11-16T10:35:09.534Z,83.65
2022-11-16T10:36:09.370Z,85.60
2022-11-16T10:37:09.508Z,88.10
2022-11-16T10:38:09.309Z,84.53
2022-11-16T10:39:09.421Z,83.11
2022-11-16T10:40:09.488Z,83.62
2022-11-16T10:41:10.269Z,85.35
2022-11-16T10:42:09.557Z,85.92
2022-11-16T10:43:09.339Z,86.08
2022-11-16T10:44:09.299Z,84.15
2022-11-16T10:45:09.362Z,82.99
2022-11-16T10:46:09.556Z,82.54
2022-11-16T10:47:09.540Z,80.27
2022-11-16T10:48:09.455Z,78.00
2022-11-16T10:49:09.158Z,76.51
2022-11-16T10:50:09.158Z,80.33
2022-11-16T10:51:09.127Z,81.25
2022-11-16T10:52:09.108Z,80.27
2022-11-16T10:53:09.060Z,78.68
2022-11-16T10:54:09.050Z,79.53
2022-11-16T10:55:09.090Z,79.74
2022-11-16T10:56:09.041Z,79.56
2022-11-16T10:57:09.086Z,78.31
2022-11-16T10:58:08.983Z,79.98
2022-11-16T10:59:08.993Z,80.02
2022-11-16T11:00:12.664Z,83.17
2022-11-16T11:01:09.933Z,81.58
2022-11-16T11:02:11.663Z,82.40
2022-11-16T11:03:09.224Z,82.33
2022-11-16T11:04:09.150Z,82.80
2022-11-16T11:05:09.020Z,81.93
2022-11-16T11:06:08.960Z,82.43
2022-11-16T11:07:08.961Z,82.29
2022-11-16T11:08:08.877Z,80.93
2022-11-16T11:09:08.862Z,83.13
2022-11-16T11:10:08.932Z,79.37
2022-11-16T11:11:08.857Z,78.38
2022-11-16T11:12:08.847Z,76.14
2022-11-16T11:13:08.779Z,74.88
2022-11-16T11:14:08.859Z,76.40
2022-11-16T11:15:08.928Z,76.91
2022-11-16T11:16:08.820Z,75.87
2022-11-16T11:17:08.924Z,76.31
2022-11-16T11:18:08.888Z,76.34
2022-11-16T11:19:08.759Z,75.52
2022-11-16T11:20:09.308Z,76.58
2022-11-16T11:21:08.898Z,78.00
2022-11-16T11:22:08.889Z,77.73
2022-11-16T11:23:08.781Z,76.95
2022-11-16T11:24:42.339Z,78.28
2022-11-16T11:25:09.724Z,78.62
2022-11-16T11:26:16.249Z,79.57
2022-11-16T11:27:08.626Z,79.30
2022-11-16T11:28:08.627Z,80.02
2022-11-16T11:29:08.573Z,79.95
2022-11-16T11:30:08.635Z,80.83
2022-11-16T11:31:08.550Z,80.73
2022-11-16T11:32:08.545Z,80.83
2022-11-16T11:33:08.584Z,80.38
2022-11-16T11:34:08.506Z,79.57
2022-11-16T11:35:08.484Z,78.08
2022-11-16T11:36:08.482Z,79.88
2022-11-16T11:37:08.449Z,78.45
2022-11-16T11:38:08.661Z,80.85
2022-11-16T11:39:08.533Z,78.82
2022-11-16T11:40:08.445Z,77.81
2022-11-16T11:41:08.389Z,77.09
2022-11-16T11:42:08.412Z,78.62
2022-11-16T11:43:08.411Z,80.24
2022-11-16T11:44:08.388Z,79.47
2022-11-16T11:45:08.338Z,79.37
2022-11-16T11:46:08.338Z,78.25
2022-11-16T11:48:44.605Z,78.55
2022-11-16T11:49:08.325Z,78.21
2022-11-16T11:50:08.310Z,76.68
2022-11-16T11:51:08.276Z,77.29
2022-11-16T11:52:08.288Z,78.01
2022-11-16T11:53:08.291Z,78.82
2022-11-16T11:54:08.226Z,78.31
2022-11-16T11:55:08.222Z,78.52
2022-11-16T11:56:08.343Z,80.35
2022-11-16T11:57:08.282Z,80.15
2022-11-16T11:58:08.173Z,77.50
2022-11-16T11:59:08.161Z,78.78
2022-11-16T12:00:08.199Z,78.48
2022-11-16T12:01:08.129Z,78.64
2022-11-16T12:02:08.299Z,77.12
2022-11-16T12:03:08.152Z,76.31
2022-11-16T12:04:08.080Z,76.82
2022-11-16T12:05:08.082Z,76.37
2022-11-16T12:06:08.053Z,73.97
2022-11-16T12:07:08.123Z,75.12
2022-11-16T12:08:08.046Z,74.41
2022-11-16T12:09:15.734Z,72.61
2022-11-16T12:10:23.550Z,73.53
2022-11-16T12:11:08.225Z,74.34
2022-11-16T12:12:13.315Z,73.29
2022-11-16T12:13:09.591Z,73.66
2022-11-16T12:14:07.964Z,72.17
2022-11-16T12:15:07.955Z,71.03
2022-11-16T12:16:07.939Z,71.91
2022-11-16T12:17:07.963Z,71.94
2022-11-16T12:18:07.922Z,73.63
2022-11-16T12:19:07.915Z,74.07
2022-11-16T12:20:07.889Z,75.19
2022-11-16T12:21:07.858Z,75.26
2022-11-16T12:22:07.873Z,75.73
2022-11-16T12:23:07.825Z,74.10
2022-11-16T12:24:07.851Z,75.02
2022-11-16T12:25:07.830Z,74.04
2022-11-16T12:26:16.599Z,74.79
2022-11-16T12:27:07.838Z,75.60
2022-11-16T12:28:07.793Z,74.72
2022-11-16T12:29:07.767Z,75.33
2022-11-16T12:30:07.797Z,75.84
2022-11-16T12:31:07.747Z,76.34
2022-11-16T12:32:07.706Z,76.45
2022-11-16T12:33:07.673Z,76.95
2022-11-16T12:34:07.674Z,77.26
2022-11-16T12:35:07.720Z,76.86
2022-11-16T12:36:07.631Z,75.53
2022-11-16T12:37:07.629Z,74.58
2022-11-16T12:38:07.748Z,75.49
2022-11-16T12:39:07.605Z,76.51
2022-11-16T12:40:07.793Z,76.01
2022-11-16T12:41:07.605Z,75.40
2022-11-16T12:42:07.595Z,76.51
2022-11-16T12:43:07.564Z,75.36
2022-11-16T12:44:07.582Z,72.58
2022-11-16T12:45:07.545Z,72.48
2022-11-16T12:46:07.529Z,72.08
2022-11-16T12:47:07.519Z,72.96
2022-11-16T12:48:07.511Z,73.50
2022-11-16T12:51:54.038Z,72.25
2022-11-16T12:52:53.587Z,72.85
2022-11-16T12:53:53.574Z,72.25
2022-11-16T12:55:24.039Z,73.70
2022-11-16T12:55:54.489Z,73.60
2022-11-16T12:57:02.513Z,73.97
2022-11-16T12:57:53.464Z,73.29
2022-11-16T12:59:05.020Z,73.43